sensor_id;sensor_type;location;lat;lon;timestamp;P1;durP1;ratioP1;P2;durP2;ratioP2
43146;SDS011;28752;48.266;7.402;2024-03-23T00:56:09;0.40;;;0.32;;
43146;SDS011;28752;48.266;7.402;2024-03-23T00:58:36;3.42;;;0.93;;
43146;SDS011;28752;48.266;7.402;2024-03-23T01:01:02;2.05;;;0.65;;
43146;SDS011;28752;48.266;7.402;2024-03-23T01:03:29;1.30;;;1.00;;
43146;SDS011;28752;48.266;7.402;2024-03-23T01:06:05;0.88;;;0.80;;
43146;SDS011;28752;48.266;7.402;2024-03-23T01:08:31;2.88;;;1.05;;
43146;SDS011;28752;48.266;7.402;2024-03-23T01:10:57;1.35;;;1.08;;
43146;SDS011;28752;48.266;7.402;2024-03-23T01:13:48;0.80;;;0.68;;
43146;SDS011;28752;48.266;7.402;2024-03-23T01:21:05;2.20;;;1.38;;
43146;SDS011;28752;48.266;7.402;2024-03-23T01:23:31;2.00;;;1.20;;
43146;SDS011;28752;48.266;7.402;2024-03-23T01:25:57;2.30;;;1.88;;
43146;SDS011;28752;48.266;7.402;2024-03-23T01:28:26;1.33;;;1.23;;
43146;SDS011;28752;48.266;7.402;2024-03-23T01:33:18;0.70;;;0.70;;
43146;SDS011;28752;48.266;7.402;2024-03-23T01:35:44;3.40;;;0.95;;
43146;SDS011;28752;48.266;7.402;2024-03-23T01:38:10;1.60;;;1.15;;
43146;SDS011;28752;48.266;7.402;2024-03-23T01:40:36;0.10;;;0.10;;
43146;SDS011;28752;48.266;7.402;2024-03-23T01:43:04;1.27;;;0.63;;
43146;SDS011;28752;48.266;7.402;2024-03-23T01:45:35;0.30;;;0.30;;
43146;SDS011;28752;48.266;7.402;2024-03-23T01:48:02;0.15;;;0.10;;
43146;SDS011;28752;48.266;7.402;2024-03-23T01:50:29;0.20;;;0.10;;
43146;SDS011;28752;48.266;7.402;2024-03-23T01:53:02;0.13;;;0.13;;
43146;SDS011;28752;48.266;7.402;2024-03-23T01:55:31;0.30;;;0.30;;
43146;SDS011;28752;48.266;7.402;2024-03-23T01:57:58;1.17;;;0.93;;
43146;SDS011;28752;48.266;7.402;2024-03-23T02:00:24;0.65;;;0.35;;
43146;SDS011;28752;48.266;7.402;2024-03-23T02:02:52;1.80;;;0.82;;
43146;SDS011;28752;48.266;7.402;2024-03-23T02:05:19;0.20;;;0.15;;
43146;SDS011;28752;48.266;7.402;2024-03-23T02:07:46;0.32;;;0.20;;
43146;SDS011;28752;48.266;7.402;2024-03-23T02:10:12;0.98;;;0.32;;
43146;SDS011;28752;48.266;7.402;2024-03-23T02:12:43;0.70;;;0.22;;
43146;SDS011;28752;48.266;7.402;2024-03-23T02:15:09;1.38;;;0.50;;
43146;SDS011;28752;48.266;7.402;2024-03-23T02:17:35;0.13;;;0.10;;
43146;SDS011;28752;48.266;7.402;2024-03-23T02:20:13;0.47;;;0.40;;
43146;SDS011;28752;48.266;7.402;2024-03-23T02:22:39;1.50;;;0.30;;
43146;SDS011;28752;48.266;7.402;2024-03-23T02:25:06;0.63;;;0.50;;
43146;SDS011;28752;48.266;7.402;2024-03-23T02:27:38;0.35;;;0.10;;
43146;SDS011;28752;48.266;7.402;2024-03-23T02:30:05;3.75;;;1.05;;
43146;SDS011;28752;48.266;7.402;2024-03-23T02:32:32;0.43;;;0.13;;
43146;SDS011;28752;48.266;7.402;2024-03-23T02:34:58;0.80;;;0.20;;
43146;SDS011;28752;48.266;7.402;2024-03-23T02:39:56;0.70;;;0.20;;
43146;SDS011;28752;48.266;7.402;2024-03-23T02:42:25;0.43;;;0.43;;
43146;SDS011;28752;48.266;7.402;2024-03-23T02:44:51;0.05;;;0.05;;
43146;SDS011;28752;48.266;7.402;2024-03-23T02:47:17;0.30;;;0.30;;
43146;SDS011;28752;48.266;7.402;2024-03-23T02:49:45;1.25;;;1.08;;
43146;SDS011;28752;48.266;7.402;2024-03-23T02:52:11;0.10;;;0.10;;
43146;SDS011;28752;48.266;7.402;2024-03-23T02:54:37;0.80;;;0.80;;
43146;SDS011;28752;48.266;7.402;2024-03-23T02:57:03;0.40;;;0.22;;
43146;SDS011;28752;48.266;7.402;2024-03-23T02:59:30;0.50;;;0.50;;
43146;SDS011;28752;48.266;7.402;2024-03-23T03:01:55;0.22;;;0.22;;
43146;SDS011;28752;48.266;7.402;2024-03-23T03:04:21;0.40;;;0.40;;
43146;SDS011;28752;48.266;7.402;2024-03-23T03:06:47;0.45;;;0.38;;
43146;SDS011;28752;48.266;7.402;2024-03-23T03:09:19;0.05;;;0.05;;
43146;SDS011;28752;48.266;7.402;2024-03-23T03:11:46;0.80;;;0.57;;
43146;SDS011;28752;48.266;7.402;2024-03-23T03:14:15;1.10;;;0.60;;
43146;SDS011;28752;48.266;7.402;2024-03-23T03:16:41;0.38;;;0.30;;
43146;SDS011;28752;48.266;7.402;2024-03-23T03:19:07;0.52;;;0.40;;
43146;SDS011;28752;48.266;7.402;2024-03-23T03:21:45;1.08;;;0.55;;
43146;SDS011;28752;48.266;7.402;2024-03-23T03:24:13;2.35;;;0.90;;
43146;SDS011;28752;48.266;7.402;2024-03-23T03:26:39;4.68;;;0.90;;
43146;SDS011;28752;48.266;7.402;2024-03-23T03:29:06;0.43;;;0.38;;
43146;SDS011;28752;48.266;7.402;2024-03-23T03:31:34;0.35;;;0.35;;
43146;SDS011;28752;48.266;7.402;2024-03-23T03:34:00;1.10;;;0.68;;
43146;SDS011;28752;48.266;7.402;2024-03-23T03:36:29;0.90;;;0.80;;
43146;SDS011;28752;48.266;7.402;2024-03-23T03:38:54;0.98;;;0.82;;
43146;SDS011;28752;48.266;7.402;2024-03-23T03:41:21;0.45;;;0.43;;
43146;SDS011;28752;48.266;7.402;2024-03-23T03:43:47;1.05;;;0.50;;
43146;SDS011;28752;48.266;7.402;2024-03-23T03:46:12;1.48;;;1.38;;
43146;SDS011;28752;48.266;7.402;2024-03-23T03:48:38;1.10;;;0.53;;
43146;SDS011;28752;48.266;7.402;2024-03-23T03:51:05;1.95;;;1.48;;
43146;SDS011;28752;48.266;7.402;2024-03-23T03:53:31;1.55;;;1.10;;
43146;SDS011;28752;48.266;7.402;2024-03-23T03:55:56;4.65;;;1.20;;
43146;SDS011;28752;48.266;7.402;2024-03-23T03:58:26;1.75;;;1.15;;
43146;SDS011;28752;48.266;7.402;2024-03-23T04:00:52;1.35;;;0.68;;
43146;SDS011;28752;48.266;7.402;2024-03-23T04:05:49;9.70;;;2.63;;
43146;SDS011;28752;48.266;7.402;2024-03-23T04:08:16;2.00;;;1.48;;
43146;SDS011;28752;48.266;7.402;2024-03-23T04:10:45;3.38;;;1.75;;
43146;SDS011;28752;48.266;7.402;2024-03-23T04:13:12;4.30;;;2.15;;
43146;SDS011;28752;48.266;7.402;2024-03-23T04:15:38;4.35;;;1.77;;
43146;SDS011;28752;48.266;7.402;2024-03-23T04:18:04;5.05;;;2.00;;
43146;SDS011;28752;48.266;7.402;2024-03-23T04:20:31;6.03;;;2.45;;
43146;SDS011;28752;48.266;7.402;2024-03-23T04:23:00;5.90;;;2.78;;
43146;SDS011;28752;48.266;7.402;2024-03-23T04:25:26;4.25;;;2.03;;
43146;SDS011;28752;48.266;7.402;2024-03-23T04:27:52;6.65;;;1.90;;
43146;SDS011;28752;48.266;7.402;2024-03-23T04:30:18;5.50;;;2.75;;
43146;SDS011;28752;48.266;7.402;2024-03-23T04:32:44;5.20;;;3.78;;
43146;SDS011;28752;48.266;7.402;2024-03-23T04:35:13;3.88;;;2.13;;
43146;SDS011;28752;48.266;7.402;2024-03-23T04:37:38;4.93;;;2.20;;
43146;SDS011;28752;48.266;7.402;2024-03-23T04:40:08;5.35;;;2.17;;
43146;SDS011;28752;48.266;7.402;2024-03-23T04:42:36;5.85;;;2.70;;
43146;SDS011;28752;48.266;7.402;2024-03-23T04:45:06;7.28;;;2.72;;
43146;SDS011;28752;48.266;7.402;2024-03-23T04:47:32;4.63;;;1.95;;
43146;SDS011;28752;48.266;7.402;2024-03-23T04:50:01;4.18;;;2.33;;
43146;SDS011;28752;48.266;7.402;2024-03-23T04:52:28;5.20;;;2.35;;
43146;SDS011;28752;48.266;7.402;2024-03-23T04:54:54;4.07;;;2.70;;
43146;SDS011;28752;48.266;7.402;2024-03-23T04:59:49;3.65;;;2.03;;
43146;SDS011;28752;48.266;7.402;2024-03-23T05:02:15;2.22;;;1.95;;
43146;SDS011;28752;48.266;7.402;2024-03-23T05:07:07;5.88;;;1.85;;
43146;SDS011;28752;48.266;7.402;2024-03-23T05:09:33;2.25;;;1.73;;
43146;SDS011;28752;48.266;7.402;2024-03-23T05:12:00;2.63;;;1.00;;
43146;SDS011;28752;48.266;7.402;2024-03-23T05:14:32;1.95;;;1.15;;
43146;SDS011;28752;48.266;7.402;2024-03-23T05:17:01;3.67;;;2.15;;
43146;SDS011;28752;48.266;7.402;2024-03-23T05:19:28;1.90;;;1.73;;
43146;SDS011;28752;48.266;7.402;2024-03-23T05:21:56;0.70;;;0.70;;
43146;SDS011;28752;48.266;7.402;2024-03-23T05:24:23;0.55;;;0.55;;
43146;SDS011;28752;48.266;7.402;2024-03-23T05:26:49;1.13;;;0.28;;
43146;SDS011;28752;48.266;7.402;2024-03-23T05:29:24;0.00;;;0.00;;
43146;SDS011;28752;48.266;7.402;2024-03-23T05:31:51;0.00;;;0.00;;
43146;SDS011;28752;48.266;7.402;2024-03-23T05:34:17;0.00;;;0.00;;
43146;SDS011;28752;48.266;7.402;2024-03-23T05:36:43;0.00;;;0.00;;
43146;SDS011;28752;48.266;7.402;2024-03-23T05:39:09;0.03;;;0.03;;
43146;SDS011;28752;48.266;7.402;2024-03-23T05:41:34;0.00;;;0.00;;
43146;SDS011;28752;48.266;7.402;2024-03-23T05:44:02;0.05;;;0.00;;
43146;SDS011;28752;48.266;7.402;2024-03-23T05:46:27;0.10;;;0.03;;
43146;SDS011;28752;48.266;7.402;2024-03-23T05:48:53;0.10;;;0.10;;
43146;SDS011;28752;48.266;7.402;2024-03-23T05:51:25;0.00;;;0.00;;
43146;SDS011;28752;48.266;7.402;2024-03-23T05:53:51;0.10;;;0.10;;
43146;SDS011;28752;48.266;7.402;2024-03-23T05:56:19;0.00;;;0.00;;
43146;SDS011;28752;48.266;7.402;2024-03-23T05:58:45;0.00;;;0.00;;
43146;SDS011;28752;48.266;7.402;2024-03-23T06:03:38;0.00;;;0.00;;
43146;SDS011;28752;48.266;7.402;2024-03-23T06:06:04;0.00;;;0.00;;
43146;SDS011;28752;48.266;7.402;2024-03-23T06:08:36;0.00;;;0.00;;
43146;SDS011;28752;48.266;7.402;2024-03-23T06:11:02;0.00;;;0.00;;
43146;SDS011;28752;48.266;7.402;2024-03-23T06:13:29;0.00;;;0.00;;
43146;SDS011;28752;48.266;7.402;2024-03-23T06:18:22;0.00;;;0.00;;
43146;SDS011;28752;48.266;7.402;2024-03-23T06:20:48;0.00;;;0.00;;
43146;SDS011;28752;48.266;7.402;2024-03-23T06:23:14;0.00;;;0.00;;
43146;SDS011;28752;48.266;7.402;2024-03-23T06:25:41;0.00;;;0.00;;
43146;SDS011;28752;48.266;7.402;2024-03-23T06:28:06;0.00;;;0.00;;
43146;SDS011;28752;48.266;7.402;2024-03-23T06:30:32;4.35;;;0.20;;
43146;SDS011;28752;48.266;7.402;2024-03-23T06:32:58;0.00;;;0.00;;
43146;SDS011;28752;48.266;7.402;2024-03-23T06:35:27;0.00;;;0.00;;
43146;SDS011;28752;48.266;7.402;2024-03-23T06:37:53;0.00;;;0.00;;
43146;SDS011;28752;48.266;7.402;2024-03-23T06:40:19;0.00;;;0.00;;
43146;SDS011;28752;48.266;7.402;2024-03-23T06:42:45;0.00;;;0.00;;
43146;SDS011;28752;48.266;7.402;2024-03-23T06:45:11;0.10;;;0.00;;
43146;SDS011;28752;48.266;7.402;2024-03-23T06:47:37;0.00;;;0.00;;
43146;SDS011;28752;48.266;7.402;2024-03-23T06:50:08;0.00;;;0.00;;
43146;SDS011;28752;48.266;7.402;2024-03-23T06:52:35;0.00;;;0.00;;
43146;SDS011;28752;48.266;7.402;2024-03-23T06:55:01;0.00;;;0.00;;
43146;SDS011;28752;48.266;7.402;2024-03-23T06:57:29;0.30;;;0.25;;
43146;SDS011;28752;48.266;7.402;2024-03-23T06:59:55;0.08;;;0.00;;
43146;SDS011;28752;48.266;7.402;2024-03-23T07:02:21;1.42;;;0.65;;
43146;SDS011;28752;48.266;7.402;2024-03-23T07:04:51;0.20;;;0.20;;
43146;SDS011;28752;48.266;7.402;2024-03-23T07:07:17;0.17;;;0.00;;
43146;SDS011;28752;48.266;7.402;2024-03-23T07:09:43;0.47;;;0.20;;
43146;SDS011;28752;48.266;7.402;2024-03-23T07:12:09;0.10;;;0.10;;
43146;SDS011;28752;48.266;7.402;2024-03-23T07:14:36;0.00;;;0.00;;
43146;SDS011;28752;48.266;7.402;2024-03-23T07:17:03;0.15;;;0.15;;
43146;SDS011;28752;48.266;7.402;2024-03-23T07:19:30;0.70;;;0.10;;
43146;SDS011;28752;48.266;7.402;2024-03-23T07:22:00;1.45;;;0.38;;
43146;SDS011;28752;48.266;7.402;2024-03-23T07:24:26;0.32;;;0.22;;
43146;SDS011;28752;48.266;7.402;2024-03-23T07:26:53;0.30;;;0.28;;
43146;SDS011;28752;48.266;7.402;2024-03-23T07:29:28;1.23;;;1.10;;
43146;SDS011;28752;48.266;7.402;2024-03-23T07:32:01;0.10;;;0.10;;
43146;SDS011;28752;48.266;7.402;2024-03-23T07:34:38;0.13;;;0.13;;
43146;SDS011;28752;48.266;7.402;2024-03-23T07:37:34;0.65;;;0.30;;
43146;SDS011;28752;48.266;7.402;2024-03-23T07:40:16;0.00;;;0.00;;
43146;SDS011;28752;48.266;7.402;2024-03-23T07:43:21;0.35;;;0.32;;
43146;SDS011;28752;48.266;7.402;2024-03-23T07:45:51;1.23;;;0.57;;
43146;SDS011;28752;48.266;7.402;2024-03-23T07:48:21;0.40;;;0.32;;
43146;SDS011;28752;48.266;7.402;2024-03-23T07:59:59;0.52;;;0.52;;
43146;SDS011;28752;48.266;7.402;2024-03-23T08:02:34;2.35;;;0.95;;
43146;SDS011;28752;48.266;7.402;2024-03-23T08:15:31;1.60;;;1.15;;
43146;SDS011;28752;48.266;7.402;2024-03-23T08:18:00;1.08;;;0.65;;
43146;SDS011;28752;48.266;7.402;2024-03-23T08:30:40;0.80;;;0.57;;
43146;SDS011;28752;48.266;7.402;2024-03-23T08:33:21;0.43;;;0.05;;
43146;SDS011;28752;48.266;7.402;2024-03-23T08:36:09;1.08;;;0.68;;
43146;SDS011;28752;48.266;7.402;2024-03-23T08:52:47;0.25;;;0.05;;
43146;SDS011;28752;48.266;7.402;2024-03-23T08:55:13;1.08;;;0.98;;
43146;SDS011;28752;48.266;7.402;2024-03-23T08:57:51;0.47;;;0.22;;
43146;SDS011;28752;48.266;7.402;2024-03-23T09:00:19;3.20;;;1.33;;
43146;SDS011;28752;48.266;7.402;2024-03-23T09:02:49;0.20;;;0.20;;
43146;SDS011;28752;48.266;7.402;2024-03-23T09:05:16;1.02;;;0.68;;
43146;SDS011;28752;48.266;7.402;2024-03-23T09:07:45;0.20;;;0.13;;
43146;SDS011;28752;48.266;7.402;2024-03-23T09:10:11;0.30;;;0.30;;
43146;SDS011;28752;48.266;7.402;2024-03-23T09:12:37;0.73;;;0.65;;
43146;SDS011;28752;48.266;7.402;2024-03-23T09:15:16;0.00;;;0.00;;
43146;SDS011;28752;48.266;7.402;2024-03-23T09:18:11;0.22;;;0.22;;
43146;SDS011;28752;48.266;7.402;2024-03-23T09:20:49;1.30;;;0.93;;
43146;SDS011;28752;48.266;7.402;2024-03-23T09:23:36;0.10;;;0.10;;
43146;SDS011;28752;48.266;7.402;2024-03-23T09:26:12;0.77;;;0.30;;
43146;SDS011;28752;48.266;7.402;2024-03-23T09:28:39;0.00;;;0.00;;
43146;SDS011;28752;48.266;7.402;2024-03-23T09:31:09;0.00;;;0.00;;
43146;SDS011;28752;48.266;7.402;2024-03-23T09:33:40;0.75;;;0.60;;
43146;SDS011;28752;48.266;7.402;2024-03-23T09:36:10;0.20;;;0.20;;
43146;SDS011;28752;48.266;7.402;2024-03-23T09:38:36;0.75;;;0.52;;
43146;SDS011;28752;48.266;7.402;2024-03-23T09:41:11;0.13;;;0.00;;
43146;SDS011;28752;48.266;7.402;2024-03-23T09:43:37;0.25;;;0.17;;
43146;SDS011;28752;48.266;7.402;2024-03-23T09:46:04;0.65;;;0.65;;
43146;SDS011;28752;48.266;7.402;2024-03-23T09:48:30;1.45;;;1.10;;
43146;SDS011;28752;48.266;7.402;2024-03-23T09:50:57;0.65;;;0.50;;
43146;SDS011;28752;48.266;7.402;2024-03-23T09:53:35;0.22;;;0.22;;
43146;SDS011;28752;48.266;7.402;2024-03-23T09:56:04;0.00;;;0.00;;
43146;SDS011;28752;48.266;7.402;2024-03-23T09:58:30;0.15;;;0.10;;
43146;SDS011;28752;48.266;7.402;2024-03-23T10:00:59;0.08;;;0.08;;
43146;SDS011;28752;48.266;7.402;2024-03-23T10:08:27;0.10;;;0.10;;
43146;SDS011;28752;48.266;7.402;2024-03-23T10:10:54;0.00;;;0.00;;
43146;SDS011;28752;48.266;7.402;2024-03-23T10:13:25;0.10;;;0.10;;
43146;SDS011;28752;48.266;7.402;2024-03-23T10:15:56;0.10;;;0.10;;
43146;SDS011;28752;48.266;7.402;2024-03-23T10:18:22;0.20;;;0.20;;
43146;SDS011;28752;48.266;7.402;2024-03-23T10:21:00;0.20;;;0.10;;
43146;SDS011;28752;48.266;7.402;2024-03-23T10:23:42;0.10;;;0.10;;
43146;SDS011;28752;48.266;7.402;2024-03-23T10:29:37;0.00;;;0.00;;
43146;SDS011;28752;48.266;7.402;2024-03-23T10:32:28;0.68;;;0.25;;
43146;SDS011;28752;48.266;7.402;2024-03-23T10:39:04;0.32;;;0.20;;
43146;SDS011;28752;48.266;7.402;2024-03-23T11:05:47;0.85;;;0.68;;
43146;SDS011;28752;48.266;7.402;2024-03-23T11:08:29;0.40;;;0.40;;
43146;SDS011;28752;48.266;7.402;2024-03-23T11:11:12;0.40;;;0.32;;
43146;SDS011;28752;48.266;7.402;2024-03-23T11:31:10;0.40;;;0.35;;
43146;SDS011;28752;48.266;7.402;2024-03-23T11:33:40;0.10;;;0.10;;
43146;SDS011;28752;48.266;7.402;2024-03-23T11:36:10;0.22;;;0.20;;
43146;SDS011;28752;48.266;7.402;2024-03-23T11:38:44;0.13;;;0.10;;
43146;SDS011;28752;48.266;7.402;2024-03-23T11:41:22;7.13;;;0.52;;
43146;SDS011;28752;48.266;7.402;2024-03-23T11:44:14;0.47;;;0.45;;
43146;SDS011;28752;48.266;7.402;2024-03-23T11:47:30;0.25;;;0.20;;
43146;SDS011;28752;48.266;7.402;2024-03-23T11:49:57;0.63;;;0.63;;
43146;SDS011;28752;48.266;7.402;2024-03-23T11:52:30;0.00;;;0.00;;
43146;SDS011;28752;48.266;7.402;2024-03-23T11:55:11;0.40;;;0.10;;
43146;SDS011;28752;48.266;7.402;2024-03-23T11:57:44;0.60;;;0.25;;
43146;SDS011;28752;48.266;7.402;2024-03-23T12:00:23;0.13;;;0.13;;
43146;SDS011;28752;48.266;7.402;2024-03-23T12:02:54;1.25;;;0.80;;
43146;SDS011;28752;48.266;7.402;2024-03-23T12:05:36;0.00;;;0.00;;
43146;SDS011;28752;48.266;7.402;2024-03-23T12:11:12;0.85;;;0.70;;
43146;SDS011;28752;48.266;7.402;2024-03-23T12:13:54;0.00;;;0.00;;
43146;SDS011;28752;48.266;7.402;2024-03-23T12:16:32;0.80;;;0.57;;
43146;SDS011;28752;48.266;7.402;2024-03-23T12:19:05;0.20;;;0.20;;
43146;SDS011;28752;48.266;7.402;2024-03-23T12:21:32;0.47;;;0.45;;
43146;SDS011;28752;48.266;7.402;2024-03-23T12:26:38;0.15;;;0.15;;
43146;SDS011;28752;48.266;7.402;2024-03-23T12:29:05;0.10;;;0.10;;
43146;SDS011;28752;48.266;7.402;2024-03-23T12:31:32;0.22;;;0.20;;
43146;SDS011;28752;48.266;7.402;2024-03-23T12:33:59;0.10;;;0.10;;
43146;SDS011;28752;48.266;7.402;2024-03-23T12:36:26;0.10;;;0.00;;
43146;SDS011;28752;48.266;7.402;2024-03-23T12:43:44;0.00;;;0.00;;
43146;SDS011;28752;48.266;7.402;2024-03-23T12:46:15;0.32;;;0.32;;
43146;SDS011;28752;48.266;7.402;2024-03-23T12:48:48;0.25;;;0.13;;
43146;SDS011;28752;48.266;7.402;2024-03-23T12:51:15;0.00;;;0.00;;
43146;SDS011;28752;48.266;7.402;2024-03-23T12:53:45;0.00;;;0.00;;
43146;SDS011;28752;48.266;7.402;2024-03-23T12:56:14;4.13;;;1.02;;
43146;SDS011;28752;48.266;7.402;2024-03-23T13:03:39;1.17;;;1.08;;
43146;SDS011;28752;48.266;7.402;2024-03-23T13:06:06;0.00;;;0.00;;
43146;SDS011;28752;48.266;7.402;2024-03-23T13:08:33;0.00;;;0.00;;
43146;SDS011;28752;48.266;7.402;2024-03-23T13:11:03;5.07;;;0.80;;
43146;SDS011;28752;48.266;7.402;2024-03-23T13:13:31;3.97;;;1.35;;
43146;SDS011;28752;48.266;7.402;2024-03-23T13:16:06;0.05;;;0.00;;
43146;SDS011;28752;48.266;7.402;2024-03-23T13:18:33;0.75;;;0.20;;
43146;SDS011;28752;48.266;7.402;2024-03-23T13:21:08;0.00;;;0.00;;
43146;SDS011;28752;48.266;7.402;2024-03-23T13:26:13;0.00;;;0.00;;
43146;SDS011;28752;48.266;7.402;2024-03-23T13:28:42;0.00;;;0.00;;
43146;SDS011;28752;48.266;7.402;2024-03-23T13:33:36;1.50;;;0.75;;
43146;SDS011;28752;48.266;7.402;2024-03-23T13:36:12;0.20;;;0.20;;
43146;SDS011;28752;48.266;7.402;2024-03-23T13:38:38;0.00;;;0.00;;
43146;SDS011;28752;48.266;7.402;2024-03-23T13:41:06;0.80;;;0.40;;
43146;SDS011;28752;48.266;7.402;2024-03-23T13:46:59;0.57;;;0.45;;
43146;SDS011;28752;48.266;7.402;2024-03-23T13:49:32;0.40;;;0.30;;
43146;SDS011;28752;48.266;7.402;2024-03-23T13:51:59;0.25;;;0.15;;
43146;SDS011;28752;48.266;7.402;2024-03-23T13:54:49;0.40;;;0.20;;
43146;SDS011;28752;48.266;7.402;2024-03-23T13:57:42;0.32;;;0.25;;
43146;SDS011;28752;48.266;7.402;2024-03-23T14:00:10;0.10;;;0.10;;
43146;SDS011;28752;48.266;7.402;2024-03-23T14:02:40;0.00;;;0.00;;
43146;SDS011;28752;48.266;7.402;2024-03-23T14:05:07;3.38;;;0.50;;
43146;SDS011;28752;48.266;7.402;2024-03-23T14:07:35;0.00;;;0.00;;
43146;SDS011;28752;48.266;7.402;2024-03-23T14:10:04;0.00;;;0.00;;
43146;SDS011;28752;48.266;7.402;2024-03-23T14:15:54;13.43;;;0.75;;
43146;SDS011;28752;48.266;7.402;2024-03-23T14:18:20;0.00;;;0.00;;
43146;SDS011;28752;48.266;7.402;2024-03-23T14:20:49;0.00;;;0.00;;
43146;SDS011;28752;48.266;7.402;2024-03-23T14:23:16;0.00;;;0.00;;
43146;SDS011;28752;48.266;7.402;2024-03-23T14:25:42;0.65;;;0.35;;
43146;SDS011;28752;48.266;7.402;2024-03-23T14:28:08;0.13;;;0.03;;
43146;SDS011;28752;48.266;7.402;2024-03-23T14:30:43;0.00;;;0.00;;
43146;SDS011;28752;48.266;7.402;2024-03-23T14:33:09;1.85;;;0.25;;
43146;SDS011;28752;48.266;7.402;2024-03-23T14:35:35;6.15;;;0.90;;
43146;SDS011;28752;48.266;7.402;2024-03-23T14:38:02;0.60;;;0.20;;
43146;SDS011;28752;48.266;7.402;2024-03-23T14:40:28;0.00;;;0.00;;
43146;SDS011;28752;48.266;7.402;2024-03-23T14:42:54;1.13;;;0.85;;
43146;SDS011;28752;48.266;7.402;2024-03-23T14:47:47;0.00;;;0.00;;
43146;SDS011;28752;48.266;7.402;2024-03-23T14:50:16;0.38;;;0.22;;
43146;SDS011;28752;48.266;7.402;2024-03-23T14:52:44;0.38;;;0.38;;
43146;SDS011;28752;48.266;7.402;2024-03-23T14:55:11;0.00;;;0.00;;
43146;SDS011;28752;48.266;7.402;2024-03-23T14:57:38;0.00;;;0.00;;
43146;SDS011;28752;48.266;7.402;2024-03-23T15:00:08;0.00;;;0.00;;
43146;SDS011;28752;48.266;7.402;2024-03-23T15:02:37;0.00;;;0.00;;
43146;SDS011;28752;48.266;7.402;2024-03-23T15:05:10;0.00;;;0.00;;
43146;SDS011;28752;48.266;7.402;2024-03-23T15:07:40;0.00;;;0.00;;
43146;SDS011;28752;48.266;7.402;2024-03-23T15:17:11;0.52;;;0.52;;
43146;SDS011;28752;48.266;7.402;2024-03-23T15:37:28;0.10;;;0.10;;
43146;SDS011;28752;48.266;7.402;2024-03-23T15:39:57;0.15;;;0.15;;
43146;SDS011;28752;48.266;7.402;2024-03-23T15:42:39;0.00;;;0.00;;
43146;SDS011;28752;48.266;7.402;2024-03-23T15:45:06;0.38;;;0.38;;
43146;SDS011;28752;48.266;7.402;2024-03-23T15:47:34;0.00;;;0.00;;
43146;SDS011;28752;48.266;7.402;2024-03-23T15:50:01;0.00;;;0.00;;
43146;SDS011;28752;48.266;7.402;2024-03-23T15:52:36;0.00;;;0.00;;
43146;SDS011;28752;48.266;7.402;2024-03-23T15:55:24;0.00;;;0.00;;
43146;SDS011;28752;48.266;7.402;2024-03-23T15:57:52;0.00;;;0.00;;
43146;SDS011;28752;48.266;7.402;2024-03-23T16:00:19;0.10;;;0.10;;
43146;SDS011;28752;48.266;7.402;2024-03-23T16:02:51;0.00;;;0.00;;
43146;SDS011;28752;48.266;7.402;2024-03-23T16:05:20;0.03;;;0.03;;
43146;SDS011;28752;48.266;7.402;2024-03-23T16:07:46;0.00;;;0.00;;
43146;SDS011;28752;48.266;7.402;2024-03-23T16:10:37;0.00;;;0.00;;
43146;SDS011;28752;48.266;7.402;2024-03-23T16:13:06;0.00;;;0.00;;
43146;SDS011;28752;48.266;7.402;2024-03-23T16:15:32;0.00;;;0.00;;
43146;SDS011;28752;48.266;7.402;2024-03-23T16:17:58;0.00;;;0.00;;
43146;SDS011;28752;48.266;7.402;2024-03-23T16:20:23;0.20;;;0.20;;
43146;SDS011;28752;48.266;7.402;2024-03-23T16:22:52;0.00;;;0.00;;
43146;SDS011;28752;48.266;7.402;2024-03-23T16:25:30;0.03;;;0.03;;
43146;SDS011;28752;48.266;7.402;2024-03-23T16:28:01;0.00;;;0.00;;
43146;SDS011;28752;48.266;7.402;2024-03-23T16:30:27;0.00;;;0.00;;
43146;SDS011;28752;48.266;7.402;2024-03-23T16:32:58;0.00;;;0.00;;
43146;SDS011;28752;48.266;7.402;2024-03-23T16:35:25;0.00;;;0.00;;
43146;SDS011;28752;48.266;7.402;2024-03-23T16:37:51;0.00;;;0.00;;
43146;SDS011;28752;48.266;7.402;2024-03-23T16:40:20;0.00;;;0.00;;
43146;SDS011;28752;48.266;7.402;2024-03-23T16:42:55;0.70;;;0.57;;
43146;SDS011;28752;48.266;7.402;2024-03-23T16:45:28;1.08;;;0.90;;
43146;SDS011;28752;48.266;7.402;2024-03-23T16:47:54;0.00;;;0.00;;
43146;SDS011;28752;48.266;7.402;2024-03-23T16:50:22;0.10;;;0.10;;
43146;SDS011;28752;48.266;7.402;2024-03-23T16:52:51;0.00;;;0.00;;
43146;SDS011;28752;48.266;7.402;2024-03-23T16:58:19;0.17;;;0.17;;
43146;SDS011;28752;48.266;7.402;2024-03-23T17:00:45;0.15;;;0.00;;
43146;SDS011;28752;48.266;7.402;2024-03-23T17:03:14;0.00;;;0.00;;
43146;SDS011;28752;48.266;7.402;2024-03-23T17:05:41;1.05;;;0.57;;
43146;SDS011;28752;48.266;7.402;2024-03-23T17:08:08;1.45;;;1.08;;
43146;SDS011;28752;48.266;7.402;2024-03-23T17:10:42;1.33;;;0.68;;
43146;SDS011;28752;48.266;7.402;2024-03-23T17:13:34;0.00;;;0.00;;
43146;SDS011;28752;48.266;7.402;2024-03-23T17:16:02;0.17;;;0.17;;
43146;SDS011;28752;48.266;7.402;2024-03-23T17:18:31;0.10;;;0.10;;
43146;SDS011;28752;48.266;7.402;2024-03-23T17:20:58;0.00;;;0.00;;
43146;SDS011;28752;48.266;7.402;2024-03-23T17:26:03;0.82;;;0.05;;
43146;SDS011;28752;48.266;7.402;2024-03-23T17:28:30;5.13;;;0.82;;
43146;SDS011;28752;48.266;7.402;2024-03-23T17:31:01;0.00;;;0.00;;
43146;SDS011;28752;48.266;7.402;2024-03-23T17:33:27;0.35;;;0.10;;
43146;SDS011;28752;48.266;7.402;2024-03-23T17:35:53;0.20;;;0.20;;
43146;SDS011;28752;48.266;7.402;2024-03-23T17:38:22;0.00;;;0.00;;
43146;SDS011;28752;48.266;7.402;2024-03-23T17:57:49;1.50;;;1.35;;
43146;SDS011;28752;48.266;7.402;2024-03-23T18:00:14;0.63;;;0.50;;
43146;SDS011;28752;48.266;7.402;2024-03-23T18:02:40;0.27;;;0.27;;
43146;SDS011;28752;48.266;7.402;2024-03-23T18:05:06;0.00;;;0.00;;
43146;SDS011;28752;48.266;7.402;2024-03-23T18:07:31;0.00;;;0.00;;
43146;SDS011;28752;48.266;7.402;2024-03-23T18:09:57;0.13;;;0.13;;
43146;SDS011;28752;48.266;7.402;2024-03-23T18:12:22;0.00;;;0.00;;
43146;SDS011;28752;48.266;7.402;2024-03-23T18:14:51;4.10;;;1.17;;
43146;SDS011;28752;48.266;7.402;2024-03-23T18:17:16;0.00;;;0.00;;
43146;SDS011;28752;48.266;7.402;2024-03-23T18:19:42;0.03;;;0.03;;
43146;SDS011;28752;48.266;7.402;2024-03-23T18:22:07;0.83;;;0.23;;
43146;SDS011;28752;48.266;7.402;2024-03-23T18:24:32;0.00;;;0.00;;
43146;SDS011;28752;48.266;7.402;2024-03-23T18:30:18;0.00;;;0.00;;
43146;SDS011;28752;48.266;7.402;2024-03-23T18:32:50;0.00;;;0.00;;
43146;SDS011;28752;48.266;7.402;2024-03-23T18:35:19;0.40;;;0.38;;
43146;SDS011;28752;48.266;7.402;2024-03-23T18:37:45;0.00;;;0.00;;
43146;SDS011;28752;48.266;7.402;2024-03-23T18:40:13;0.00;;;0.00;;
43146;SDS011;28752;48.266;7.402;2024-03-23T18:42:39;0.00;;;0.00;;
43146;SDS011;28752;48.266;7.402;2024-03-23T18:45:05;0.05;;;0.03;;
43146;SDS011;28752;48.266;7.402;2024-03-23T18:47:34;0.00;;;0.00;;
43146;SDS011;28752;48.266;7.402;2024-03-23T18:50:00;0.00;;;0.00;;
43146;SDS011;28752;48.266;7.402;2024-03-23T18:52:28;0.00;;;0.00;;
43146;SDS011;28752;48.266;7.402;2024-03-23T18:54:54;0.00;;;0.00;;
43146;SDS011;28752;48.266;7.402;2024-03-23T18:57:20;0.00;;;0.00;;
43146;SDS011;28752;48.266;7.402;2024-03-23T18:59:46;0.00;;;0.00;;
43146;SDS011;28752;48.266;7.402;2024-03-23T19:02:11;0.00;;;0.00;;
43146;SDS011;28752;48.266;7.402;2024-03-23T19:04:40;1.00;;;0.65;;
43146;SDS011;28752;48.266;7.402;2024-03-23T19:07:05;0.25;;;0.20;;
43146;SDS011;28752;48.266;7.402;2024-03-23T19:09:33;0.00;;;0.00;;
43146;SDS011;28752;48.266;7.402;2024-03-23T19:12:02;0.00;;;0.00;;
43146;SDS011;28752;48.266;7.402;2024-03-23T19:16:55;0.00;;;0.00;;
43146;SDS011;28752;48.266;7.402;2024-03-23T19:19:21;0.32;;;0.28;;